FranceFixed distance
Luchon Aneto Trail - Lat Challenge
6–7 Jul2024·2 stages
Distance
87km
Finishers
158132 men26 women
Winning time
8:29:38h
Median pace
6.74km/h
Pace distribution
158 finishers · 5.09–10.24 km/h · mean 6.93
Every finisher ran the same 87 km course, so these paces are directly comparable.
Histogram of finisher pace. 158 finishers ranged from 5.09 to 10.24 kilometres per hour, with a mean of 6.93 and a median of 6.74. The busiest band is 6.0 to 6.5 kilometres per hour, with 37 finishers.
Results
Ranks 1–50 of 158
| Rank | Runner | Time | Pace | Cat. | Placing |
|---|---|---|---|---|---|
| 1 | 8:29:38h | 10.24 | MU23 | 1st M · 1st MU23 | |
| 2 | Esprit Sports | 9:04:38h | 9.58 | M23 | 2nd M · 1st M23 |
| 3 | 9:05:48h | 9.56 | M23 | 3rd M · 2nd M23 | |
| 4 | Royal White Stars A.C. | 9:20:35h | 9.31 | M23 | 4th M · 3rd M23 |
| 5 | Rruning Castres | 9:24:22h | 9.25 | M50 | 5th M · 1st M50 |
| 6 | 9:34:54h | 9.08 | M23 | 6th M · 4th M23 | |
| 6 | 9:34:54h | 9.08 | M23 | 6th M · 4th M23 | |
| 8 | 9:39:36h | 9.01 | M40 | 8th M · 1st M40 | |
| 9 | Bouliac Sports Plaisirs | 9:44:11h | 8.94 | M50 | 9th M · 2nd M50 |
| 10 | Insa Toulouse | 9:45:17h | 8.92 | M35 | 10th M · 1st M35 |
| 11 | Trail du Mourtis | 9:55:50h | 8.76 | M45 | 11th M · 1st M45 |
| 12 | Salomon France / all M... | 9:59:29h | 8.71 | M35 | 12th M · 2nd M35 |
| 13 | Tarbes Pyrénées Athlét... | 10:14:52h | 8.49 | M35 | 13th M · 3rd M35 |
| 14 | Bouliac Sport Plaisir | 10:16:17h | 8.47 | M40 | 14th M · 2nd M40 |
| 15 | Athlé 632 | 10:18:11h | 8.44 | M45 | 15th M · 2nd M45 |
| 16 | Avon Athlétisme Club | 10:22:48h | 8.38 | M23 | 16th M · 6th M23 |
| 17 | CA Beglais | 10:23:33h | 8.37 | M23 | 17th M · 7th M23 |
| 18 | *Maisons-Laffitte | 10:27:37h | 8.32 | M23 | 18th M · 8th M23 |
| 19 | US Talence | 10:34:44h | 8.22 | M35 | 19th M · 4th M35 |
| 20 | 10:37:28h | 8.19 | M40 | 20th M · 3rd M40 | |
| 21 | Treillières Run | 10:38:43h | 8.17 | M45 | 21st M · 3rd M45 |
| 22 | les Fées Saubenoises | 10:42:59h | 8.12 | M40 | 22nd M · 4th M40 |
| 23 | CA Balma | 10:44:57h | 8.09 | M23 | 23rd M · 9th M23 |
| 24 | 10:49:49h | 8.03 | M23 | 24th M · 10th M23 | |
| 25 | CA Balma | 10:50:52h | 8.02 | M45 | 25th M · 4th M45 |
| 26 | 10:51:59h | 8.01 | M23 | 26th M · 11th M23 | |
| 27 | CA Balma | 10:55:35h | 7.96 | M50 | 27th M · 3rd M50 |
| 28 | 10:55:38h | 7.96 | M45 | 28th M · 5th M45 | |
| 29 | Ginestas X Trail | 11:00:02h | 7.91 | M35 | 29th M · 5th M35 |
| 30 | CAF Trail Toulouse | 11:04:14h | 7.86 | M23 | 30th M · 12th M23 |
| 31 | 11:11:32h | 7.77 | W45 | 1st F · 1st W45 | |
| 32 | *Toulouse | 11:14:42h | 7.74 | W23 | 2nd F · 1st W23 |
| 33 | *Toulouse | 11:14:54h | 7.73 | M23 | 31st M · 13th M23 |
| 34 | 11:16:58h | 7.71 | M45 | 32nd M · 6th M45 | |
| 35 | les Coudous de la Save | 11:19:04h | 7.69 | M35 | 33rd M · 6th M35 |
| 36 | *Bassussarry | 11:22:39h | 7.65 | MU23 | 34th M · 2nd MU23 |
| 37 | Slat Montagne | 11:25:10h | 7.62 | M55 | 35th M · 1st M55 |
| 38 | Amicale Apéro Trail 12 | 11:29:13h | 7.57 | M35 | 36th M · 7th M35 |
| 39 | CA Balma | 11:31:54h | 7.54 | M45 | 37th M · 7th M45 |
| 40 | 11:32:59h | 7.53 | M45 | 38th M · 8th M45 | |
| 41 | Autour du Trail | 11:38:29h | 7.47 | M40 | 39th M · 5th M40 |
| 42 | Foulée des 3 Quilles | 11:38:35h | 7.47 | M40 | 40th M · 6th M40 |
| 43 | 11:39:43h | 7.46 | M23 | 41st M · 14th M23 | |
| 44 | Amicale Apreo Trail 12 | 11:40:56h | 7.45 | M35 | 42nd M · 8th M35 |
| 45 | 11:43:09h | 7.42 | M35 | 43rd M · 9th M35 | |
| 46 | 11:46:44h | 7.39 | M40 | 44th M · 7th M40 | |
| 47 | 11:49:10h | 7.36 | M55 | 45th M · 2nd M55 | |
| 48 | 11:49:37h | 7.36 | M23 | 46th M · 15th M23 | |
| 49 | AC Auterive | 11:50:26h | 7.35 | M45 | 47th M · 9th M45 |
| 50 | 11:51:52h | 7.33 | W23 | 3rd F · 2nd W23 |
- 11st M · 1st MU23Time8:29:38hPace10.24Cat.MU23
- 2Esprit Sports2nd M · 1st M23Time9:04:38hPace9.58Cat.M23
- 33rd M · 2nd M23Time9:05:48hPace9.56Cat.M23
- 4Royal White Stars A.C.4th M · 3rd M23Time9:20:35hPace9.31Cat.M23
- 5Rruning Castres5th M · 1st M50Time9:24:22hPace9.25Cat.M50
- 66th M · 4th M23Time9:34:54hPace9.08Cat.M23
- 66th M · 4th M23Time9:34:54hPace9.08Cat.M23
- 88th M · 1st M40Time9:39:36hPace9.01Cat.M40
- 9Bouliac Sports Plaisirs9th M · 2nd M50Time9:44:11hPace8.94Cat.M50
- 10Insa Toulouse10th M · 1st M35Time9:45:17hPace8.92Cat.M35
- 11Trail du Mourtis11th M · 1st M45Time9:55:50hPace8.76Cat.M45
- 12Salomon France / all M...12th M · 2nd M35Time9:59:29hPace8.71Cat.M35
- 13Tarbes Pyrénées Athlét...13th M · 3rd M35Time10:14:52hPace8.49Cat.M35
- 14Bouliac Sport Plaisir14th M · 2nd M40Time10:16:17hPace8.47Cat.M40
- 15Athlé 63215th M · 2nd M45Time10:18:11hPace8.44Cat.M45
- 16Avon Athlétisme Club16th M · 6th M23Time10:22:48hPace8.38Cat.M23
- 17CA Beglais17th M · 7th M23Time10:23:33hPace8.37Cat.M23
- 18*Maisons-Laffitte18th M · 8th M23Time10:27:37hPace8.32Cat.M23
- 19US Talence19th M · 4th M35Time10:34:44hPace8.22Cat.M35
- 2020th M · 3rd M40Time10:37:28hPace8.19Cat.M40
- 21Treillières Run21st M · 3rd M45Time10:38:43hPace8.17Cat.M45
- 22les Fées Saubenoises22nd M · 4th M40Time10:42:59hPace8.12Cat.M40
- 23CA Balma23rd M · 9th M23Time10:44:57hPace8.09Cat.M23
- 2424th M · 10th M23Time10:49:49hPace8.03Cat.M23
- 25CA Balma25th M · 4th M45Time10:50:52hPace8.02Cat.M45
- 2626th M · 11th M23Time10:51:59hPace8.01Cat.M23
- 27CA Balma27th M · 3rd M50Time10:55:35hPace7.96Cat.M50
- 2828th M · 5th M45Time10:55:38hPace7.96Cat.M45
- 29Ginestas X Trail29th M · 5th M35Time11:00:02hPace7.91Cat.M35
- 30CAF Trail Toulouse30th M · 12th M23Time11:04:14hPace7.86Cat.M23
- 311st F · 1st W45Time11:11:32hPace7.77Cat.W45
- 32*Toulouse2nd F · 1st W23Time11:14:42hPace7.74Cat.W23
- 33*Toulouse31st M · 13th M23Time11:14:54hPace7.73Cat.M23
- 3432nd M · 6th M45Time11:16:58hPace7.71Cat.M45
- 35les Coudous de la Save33rd M · 6th M35Time11:19:04hPace7.69Cat.M35
- 36*Bassussarry34th M · 2nd MU23Time11:22:39hPace7.65Cat.MU23
- 37Slat Montagne35th M · 1st M55Time11:25:10hPace7.62Cat.M55
- 38Amicale Apéro Trail 1236th M · 7th M35Time11:29:13hPace7.57Cat.M35
- 39CA Balma37th M · 7th M45Time11:31:54hPace7.54Cat.M45
- 4038th M · 8th M45Time11:32:59hPace7.53Cat.M45
- 41Autour du Trail39th M · 5th M40Time11:38:29hPace7.47Cat.M40
- 42Foulée des 3 Quilles40th M · 6th M40Time11:38:35hPace7.47Cat.M40
- 4341st M · 14th M23Time11:39:43hPace7.46Cat.M23
- 44Amicale Apreo Trail 1242nd M · 8th M35Time11:40:56hPace7.45Cat.M35
- 4543rd M · 9th M35Time11:43:09hPace7.42Cat.M35
- 4644th M · 7th M40Time11:46:44hPace7.39Cat.M40
- 4745th M · 2nd M55Time11:49:10hPace7.36Cat.M55
- 4846th M · 15th M23Time11:49:37hPace7.36Cat.M23
- 49AC Auterive47th M · 9th M45Time11:50:26hPace7.35Cat.M45
- 503rd F · 2nd W23Time11:51:52hPace7.33Cat.W23
Showing ranks 1–50 of 158